createdAt,value
2018-07-21T00:02:16.861Z,99.90
2018-07-21T00:04:47.323Z,99.90
2018-07-21T00:07:37.198Z,99.90
2018-07-21T00:10:12.502Z,99.90
2018-07-21T00:12:43.886Z,99.90
2018-07-21T00:15:17.316Z,99.90
2018-07-21T00:17:47.796Z,99.90
2018-07-21T00:20:18.283Z,99.90
2018-07-21T00:22:48.773Z,99.90
2018-07-21T00:25:22.765Z,99.90
2018-07-21T00:27:53.560Z,99.90
2018-07-21T00:30:24.080Z,99.90
2018-07-21T00:32:54.618Z,99.90
2018-07-21T00:35:24.993Z,99.90
2018-07-21T00:37:55.452Z,99.90
2018-07-21T00:40:25.916Z,99.90
2018-07-21T00:42:58.128Z,99.90
2018-07-21T00:45:30.874Z,99.90
2018-07-21T00:48:02.108Z,99.90
2018-07-21T00:50:32.617Z,99.90
2018-07-21T00:53:03.094Z,99.90
2018-07-21T00:55:33.556Z,99.90
2018-07-21T00:58:04.044Z,99.90
2018-07-21T01:00:35.280Z,99.90
2018-07-21T01:05:52.590Z,99.90
2018-07-21T01:08:23.260Z,99.90
2018-07-21T01:10:55.029Z,99.90
2018-07-21T01:13:25.430Z,99.90
2018-07-21T01:15:55.903Z,99.90
2018-07-21T01:18:26.367Z,99.90
2018-07-21T01:20:57.881Z,99.90
2018-07-21T01:23:28.350Z,99.90
2018-07-21T01:26:00.399Z,99.90
2018-07-21T01:28:31.595Z,99.90
2018-07-21T01:31:03.084Z,99.90
2018-07-21T01:33:36.642Z,99.90
2018-07-21T01:36:08.892Z,99.90
2018-07-21T01:38:41.326Z,99.90
2018-07-21T01:41:16.997Z,99.90
2018-07-21T01:43:47.457Z,99.90
2018-07-21T01:46:17.941Z,99.90
2018-07-21T01:48:48.451Z,99.90
2018-07-21T01:51:18.831Z,99.90
2018-07-21T01:53:49.299Z,99.90
2018-07-21T01:56:20.790Z,99.90
2018-07-21T01:58:54.131Z,99.90
2018-07-21T02:01:25.373Z,99.90
2018-07-21T02:03:56.659Z,99.90
2018-07-21T02:06:29.811Z,99.90
2018-07-21T02:09:00.414Z,99.90
2018-07-21T02:11:30.908Z,99.90
2018-07-21T02:14:02.398Z,99.90
2018-07-21T02:16:32.851Z,99.90
2018-07-21T02:19:04.364Z,99.90
2018-07-21T02:21:35.685Z,99.90
2018-07-21T02:24:06.934Z,99.90
2018-07-21T02:26:37.440Z,99.90
2018-07-21T02:29:08.844Z,99.90
2018-07-21T02:31:39.326Z,99.90
2018-07-21T02:34:09.831Z,99.90
2018-07-21T02:36:41.084Z,99.90
2018-07-21T02:39:12.287Z,99.90
2018-07-21T02:41:43.715Z,99.90
2018-07-21T02:44:16.317Z,99.90
2018-07-21T02:46:46.676Z,99.90
2018-07-21T02:49:17.270Z,99.90
2018-07-21T02:51:52.757Z,99.90
2018-07-21T02:54:24.125Z,99.90
2018-07-21T02:56:54.725Z,99.90
2018-07-21T02:59:25.204Z,99.90
2018-07-21T03:01:55.620Z,99.90
2018-07-21T03:04:26.089Z,99.90
2018-07-21T03:06:57.376Z,99.90
2018-07-21T03:09:28.636Z,99.90
2018-07-21T03:11:59.563Z,99.90
2018-07-21T03:14:30.843Z,99.90
2018-07-21T03:17:01.534Z,99.90
2018-07-21T03:19:31.898Z,99.90
2018-07-21T03:22:02.375Z,99.90
2018-07-21T03:24:32.878Z,99.90
2018-07-21T03:27:05.444Z,99.90
2018-07-21T03:29:35.900Z,99.90
2018-07-21T03:32:06.293Z,99.90
2018-07-21T03:34:36.777Z,99.90
2018-07-21T03:37:07.987Z,99.90
2018-07-21T03:39:43.611Z,99.90
2018-07-21T03:42:14.258Z,99.90
2018-07-21T03:44:48.799Z,99.90
2018-07-21T03:47:19.873Z,99.90
2018-07-21T03:49:51.082Z,99.90
2018-07-21T03:52:21.482Z,99.90
2018-07-21T03:54:52.089Z,99.90
2018-07-21T03:57:23.818Z,99.90
2018-07-21T03:59:58.324Z,99.90
2018-07-21T04:02:28.735Z,99.90
2018-07-21T04:05:03.682Z,99.90
2018-07-21T04:07:34.157Z,99.90
2018-07-21T04:10:04.573Z,99.90
2018-07-21T04:12:35.785Z,99.90
2018-07-21T04:15:06.110Z,99.90
2018-07-21T04:17:36.444Z,99.90
2018-07-21T04:20:06.828Z,99.90
2018-07-21T04:22:37.212Z,99.90
2018-07-21T04:25:07.619Z,99.90
2018-07-21T04:27:38.462Z,99.90
2018-07-21T04:30:08.929Z,99.90
2018-07-21T04:32:39.348Z,99.90
2018-07-21T04:35:10.486Z,99.90
2018-07-21T04:37:40.874Z,99.90
2018-07-21T04:40:32.707Z,99.90
2018-07-21T04:43:08.723Z,99.90
2018-07-21T04:45:39.137Z,99.90
2018-07-21T04:48:10.313Z,99.90
2018-07-21T04:50:40.632Z,99.90
2018-07-21T04:53:11.417Z,99.90
2018-07-21T04:55:41.843Z,99.90
2018-07-21T04:58:12.222Z,99.90
2018-07-21T05:00:42.728Z,99.90
2018-07-21T05:03:13.038Z,99.90
2018-07-21T05:05:44.172Z,99.90
2018-07-21T05:08:14.667Z,99.90
2018-07-21T05:11:04.183Z,99.90
2018-07-21T05:13:35.089Z,99.90
2018-07-21T05:16:05.682Z,99.90
2018-07-21T05:18:36.072Z,99.90
2018-07-21T05:21:06.486Z,99.90
2018-07-21T05:23:38.144Z,99.90
2018-07-21T05:28:57.512Z,99.90
2018-07-21T05:31:27.887Z,99.90
2018-07-21T05:33:59.042Z,99.90
2018-07-21T05:36:30.214Z,99.90
2018-07-21T05:39:00.625Z,99.90
2018-07-21T05:41:32.368Z,99.90
2018-07-21T05:44:03.589Z,99.90
2018-07-21T05:46:33.973Z,99.90
2018-07-21T05:49:05.373Z,99.90
2018-07-21T05:51:35.785Z,99.90
2018-07-21T05:54:06.103Z,99.90
2018-07-21T05:56:36.477Z,99.90
2018-07-21T05:59:07.192Z,99.90
2018-07-21T06:01:37.698Z,99.90
2018-07-21T06:04:08.084Z,99.90
2018-07-21T06:06:38.690Z,99.90
2018-07-21T06:09:10.340Z,99.90
2018-07-21T06:11:41.180Z,99.90
2018-07-21T06:14:12.349Z,99.90
2018-07-21T06:16:42.669Z,99.90
2018-07-21T06:19:13.050Z,99.90
2018-07-21T06:21:43.520Z,99.90
2018-07-21T06:24:14.680Z,99.90
2018-07-21T06:26:45.068Z,99.90
2018-07-21T06:29:15.559Z,99.90
2018-07-21T06:31:45.878Z,99.90
2018-07-21T06:34:16.193Z,99.90
2018-07-21T06:36:46.608Z,99.90
2018-07-21T06:39:17.215Z,99.90
2018-07-21T06:41:47.896Z,99.90
2018-07-21T06:44:20.387Z,99.90
2018-07-21T06:46:50.993Z,99.90
2018-07-21T06:49:21.371Z,99.90
2018-07-21T06:51:51.774Z,99.90
2018-07-21T06:54:22.106Z,99.90
2018-07-21T06:56:52.969Z,99.90
2018-07-21T06:59:23.395Z,99.90
2018-07-21T07:01:53.706Z,99.90
2018-07-21T07:04:24.394Z,99.90
2018-07-21T07:06:55.034Z,99.90
2018-07-21T07:09:25.338Z,99.90
2018-07-21T07:11:57.014Z,99.90
2018-07-21T07:14:27.418Z,99.90
2018-07-21T07:16:58.376Z,99.90
2018-07-21T07:19:29.322Z,99.90
2018-07-21T07:21:59.751Z,99.90
2018-07-21T07:24:35.260Z,99.90
2018-07-21T07:27:06.987Z,99.90
2018-07-21T07:29:37.386Z,99.90
2018-07-21T07:32:07.781Z,99.90
2018-07-21T07:34:38.524Z,99.90
2018-07-21T07:37:09.864Z,99.90
2018-07-21T07:39:40.463Z,99.90
2018-07-21T07:42:10.916Z,99.90
2018-07-21T07:44:42.547Z,99.90
2018-07-21T07:47:13.879Z,99.90
2018-07-21T07:49:44.282Z,99.90
2018-07-21T07:52:18.616Z,99.90
2018-07-21T07:54:48.975Z,99.90
2018-07-21T07:57:19.881Z,99.90
2018-07-21T07:59:50.289Z,99.90
2018-07-21T08:02:20.708Z,99.90
2018-07-21T08:04:51.408Z,99.90
2018-07-21T08:07:22.554Z,99.90
2018-07-21T08:09:53.753Z,99.90
2018-07-21T08:12:28.480Z,99.90
2018-07-21T08:15:02.988Z,99.90
2018-07-21T08:17:35.105Z,99.90
2018-07-21T08:20:05.421Z,99.90
2018-07-21T08:22:35.836Z,99.90
2018-07-21T08:25:06.866Z,99.90
2018-07-21T08:27:37.217Z,99.90
2018-07-21T08:30:07.846Z,99.90
2018-07-21T08:32:38.222Z,99.90
2018-07-21T08:35:08.603Z,99.90
2018-07-21T08:37:39.000Z,99.90
2018-07-21T08:40:09.628Z,99.90
2018-07-21T08:42:47.295Z,99.90
2018-07-21T08:45:17.800Z,99.90
2018-07-21T08:47:48.188Z,99.90
2018-07-21T08:50:37.967Z,99.90
2018-07-21T08:53:08.349Z,99.90
2018-07-21T08:55:38.774Z,99.90
2018-07-21T08:58:09.170Z,99.90
2018-07-21T09:00:39.555Z,99.90
2018-07-21T09:03:09.944Z,99.90
2018-07-21T09:05:42.182Z,99.90
2018-07-21T09:08:12.542Z,99.90
2018-07-21T09:10:42.928Z,99.90
2018-07-21T09:13:13.411Z,99.90
2018-07-21T09:15:43.709Z,99.90
2018-07-21T09:18:14.092Z,99.90
2018-07-21T09:20:45.524Z,99.90
2018-07-21T09:23:15.935Z,99.90
2018-07-21T09:25:47.099Z,99.90
2018-07-21T09:28:17.529Z,99.90
2018-07-21T09:30:47.913Z,99.90
2018-07-21T09:33:18.581Z,99.90
2018-07-21T09:38:37.744Z,99.90
2018-07-21T09:41:08.089Z,99.90
2018-07-21T09:43:38.466Z,99.90
2018-07-21T09:46:08.870Z,99.90
2018-07-21T09:48:44.339Z,99.90
2018-07-21T09:51:14.720Z,99.90
2018-07-21T09:53:45.106Z,99.90
2018-07-21T09:56:17.117Z,99.90
2018-07-21T09:58:47.485Z,99.80
2018-07-21T10:01:17.872Z,98.80
2018-07-21T10:03:48.387Z,98.90
2018-07-21T10:06:18.776Z,99.50
2018-07-21T10:08:50.074Z,98.90
2018-07-21T10:11:20.492Z,99.80
2018-07-21T10:13:50.975Z,99.50
2018-07-21T10:16:21.562Z,98.80
2018-07-21T10:18:53.385Z,99.00
2018-07-21T10:21:23.803Z,98.80
2018-07-21T10:23:54.193Z,99.40
2018-07-21T10:26:55.330Z,98.60
2018-07-21T10:29:26.737Z,98.60
2018-07-21T10:31:57.210Z,99.00
2018-07-21T10:34:29.804Z,98.10
2018-07-21T10:37:00.206Z,98.70
2018-07-21T10:39:30.677Z,98.80
2018-07-21T10:42:01.252Z,97.80
2018-07-21T10:44:32.397Z,97.60
2018-07-21T10:47:03.543Z,97.40
2018-07-21T10:49:33.953Z,97.40
2018-07-21T10:52:04.457Z,97.90
2018-07-21T10:54:34.849Z,97.50
2018-07-21T10:57:05.280Z,97.50
2018-07-21T10:59:35.781Z,97.30
2018-07-21T11:02:06.242Z,96.80
2018-07-21T11:04:38.710Z,96.60
2018-07-21T11:07:13.201Z,96.50
2018-07-21T11:09:43.599Z,94.90
2018-07-21T11:12:14.011Z,96.40
2018-07-21T11:14:44.413Z,96.10
2018-07-21T11:17:15.738Z,95.80
2018-07-21T11:19:46.843Z,96.40
2018-07-21T11:22:17.366Z,96.80
2018-07-21T11:24:48.664Z,95.50
2018-07-21T11:27:19.012Z,97.30
2018-07-21T11:29:51.469Z,95.10
2018-07-21T11:32:21.860Z,94.60
2018-07-21T11:34:54.074Z,94.90
2018-07-21T11:37:24.459Z,95.00
2018-07-21T11:39:54.842Z,94.70
2018-07-21T11:42:25.247Z,93.50
2018-07-21T11:44:56.394Z,94.40
2018-07-21T11:47:26.981Z,94.40
2018-07-21T11:49:57.405Z,94.70
2018-07-21T11:52:27.806Z,95.80
2018-07-21T11:54:58.209Z,95.20
2018-07-21T11:57:29.322Z,94.80
2018-07-21T11:59:59.692Z,94.80
2018-07-21T12:02:30.123Z,95.10
2018-07-21T12:05:00.565Z,93.40
2018-07-21T12:07:30.984Z,93.50
2018-07-21T12:10:01.381Z,94.70
2018-07-21T12:12:31.841Z,95.10
2018-07-21T12:15:02.178Z,95.00
2018-07-21T12:17:32.582Z,94.60
2018-07-21T12:20:03.055Z,94.80
2018-07-21T12:22:33.466Z,94.40
2018-07-21T12:25:03.859Z,95.20
2018-07-21T12:27:34.326Z,94.00
2018-07-21T12:30:04.608Z,96.90
2018-07-21T12:32:35.002Z,96.50
2018-07-21T12:35:05.424Z,97.20
2018-07-21T12:37:35.840Z,96.20
2018-07-21T12:40:06.350Z,97.50
2018-07-21T12:42:55.008Z,96.10
2018-07-21T12:45:46.836Z,97.70
2018-07-21T12:48:18.292Z,95.60
2018-07-21T12:50:49.360Z,95.70
2018-07-21T12:53:19.793Z,97.40
2018-07-21T12:55:50.150Z,97.60
2018-07-21T12:58:20.480Z,96.00
2018-07-21T13:00:50.885Z,95.70
2018-07-21T13:03:22.108Z,94.10
2018-07-21T13:05:52.459Z,94.10
2018-07-21T13:08:29.166Z,94.00
2018-07-21T13:11:00.757Z,93.90
2018-07-21T13:13:31.151Z,95.40
2018-07-21T13:16:01.576Z,94.50
2018-07-21T13:18:31.992Z,95.70
2018-07-21T13:21:02.315Z,96.30
2018-07-21T13:23:32.750Z,96.60
2018-07-21T13:26:03.129Z,96.50
2018-07-21T13:28:33.511Z,96.40
2018-07-21T13:31:08.017Z,96.50
2018-07-21T13:33:38.411Z,97.00
2018-07-21T13:36:08.802Z,96.90
2018-07-21T13:38:39.146Z,96.70
2018-07-21T13:41:09.552Z,97.30
2018-07-21T13:43:41.987Z,96.70
2018-07-21T13:49:00.571Z,96.90
2018-07-21T13:51:31.047Z,97.00
2018-07-21T13:54:01.395Z,96.60
2018-07-21T13:56:31.764Z,96.30
2018-07-21T13:59:02.175Z,96.70
2018-07-21T14:01:32.570Z,97.70
2018-07-21T14:04:03.729Z,97.90
2018-07-21T14:06:34.844Z,98.30
2018-07-21T14:09:05.287Z,98.30
2018-07-21T14:11:36.429Z,98.40
2018-07-21T14:14:06.861Z,98.40
2018-07-21T14:16:38.010Z,98.20
2018-07-21T14:19:09.172Z,98.50
2018-07-21T14:21:39.627Z,98.50
2018-07-21T14:24:10.023Z,99.50
2018-07-21T14:26:40.395Z,98.60
2018-07-21T14:29:10.813Z,98.30
2018-07-21T14:31:41.148Z,98.00
2018-07-21T14:34:11.535Z,98.80
2018-07-21T14:36:41.951Z,97.70
2018-07-21T14:39:12.339Z,98.30
2018-07-21T14:41:42.666Z,97.30
2018-07-21T14:44:13.700Z,97.30
2018-07-21T14:46:45.115Z,98.10
2018-07-21T14:49:15.480Z,97.70
2018-07-21T14:51:46.097Z,97.60
2018-07-21T14:54:16.489Z,97.60
2018-07-21T14:56:56.690Z,97.40
2018-07-21T14:59:27.071Z,97.50
2018-07-21T15:01:57.450Z,97.10
2018-07-21T15:04:27.871Z,96.90
2018-07-21T15:07:05.312Z,97.90
2018-07-21T15:09:35.773Z,97.10
2018-07-21T15:12:09.233Z,96.80
2018-07-21T15:14:45.222Z,96.60
2018-07-21T15:17:18.667Z,96.80
2018-07-21T15:19:49.054Z,97.50
2018-07-21T15:22:19.474Z,97.20
2018-07-21T15:24:57.061Z,96.80
2018-07-21T15:27:27.471Z,97.00
2018-07-21T15:29:57.850Z,96.30
2018-07-21T15:32:28.224Z,95.30
2018-07-21T15:34:58.575Z,96.10
2018-07-21T15:37:36.286Z,96.20
2018-07-21T15:40:06.705Z,96.50
2018-07-21T15:42:39.146Z,96.80
2018-07-21T15:45:10.295Z,98.20
2018-07-21T15:47:40.700Z,98.20
2018-07-21T15:50:15.109Z,98.80
2018-07-21T15:52:51.227Z,98.40
2018-07-21T15:55:24.679Z,98.30
2018-07-21T15:57:55.834Z,99.50
2018-07-21T16:00:27.017Z,98.40
2018-07-21T16:03:01.515Z,98.40
2018-07-21T16:05:31.876Z,98.60
2018-07-21T16:08:03.311Z,98.60
2018-07-21T16:10:35.747Z,99.20
2018-07-21T16:13:07.083Z,99.90
2018-07-21T16:15:37.476Z,99.90
2018-07-21T16:18:16.117Z,99.90
2018-07-21T16:20:47.494Z,99.90
2018-07-21T16:23:18.650Z,99.90
2018-07-21T16:25:49.000Z,99.90
2018-07-21T16:28:26.798Z,99.90
2018-07-21T16:30:57.218Z,99.90
2018-07-21T16:33:27.658Z,99.90
2018-07-21T16:35:57.999Z,99.90
2018-07-21T16:38:29.454Z,99.90
2018-07-21T16:41:00.495Z,99.90
2018-07-21T16:43:33.841Z,99.90
2018-07-21T16:46:05.937Z,99.40
2018-07-21T16:48:37.354Z,99.40
2018-07-21T16:51:08.509Z,99.90
2018-07-21T16:53:38.933Z,99.90
2018-07-21T16:56:09.329Z,99.90
2018-07-21T16:58:39.707Z,99.00
2018-07-21T17:01:10.060Z,99.00
2018-07-21T17:03:40.462Z,98.80
2018-07-21T17:06:11.039Z,98.10
2018-07-21T17:08:41.446Z,98.10
2018-07-21T17:11:11.833Z,98.50
2018-07-21T17:13:42.221Z,98.50
2018-07-21T17:16:12.644Z,99.30
2018-07-21T17:18:43.024Z,98.60
2018-07-21T17:21:13.517Z,98.70
2018-07-21T17:23:43.865Z,98.30
2018-07-21T17:26:14.211Z,99.30
2018-07-21T17:28:46.655Z,99.40
2018-07-21T17:31:17.066Z,99.40
2018-07-21T17:33:47.649Z,98.80
2018-07-21T17:36:22.133Z,98.70
2018-07-21T17:38:52.550Z,99.20
2018-07-21T17:41:23.768Z,99.10
2018-07-21T17:43:54.102Z,99.10
2018-07-21T17:46:24.533Z,99.80
2018-07-21T17:48:54.925Z,99.30
2018-07-21T17:51:44.721Z,99.30
2018-07-21T17:54:15.039Z,99.70
2018-07-21T17:56:48.511Z,99.40
2018-07-21T17:59:19.963Z,99.20
2018-07-21T18:04:44.505Z,98.90
2018-07-21T18:07:16.869Z,99.00
2018-07-21T18:09:54.583Z,99.40
2018-07-21T18:12:24.976Z,99.40
2018-07-21T18:14:55.372Z,99.30
2018-07-21T18:17:25.781Z,99.90
2018-07-21T18:19:56.094Z,99.90
2018-07-21T18:22:26.406Z,99.90
2018-07-21T18:24:56.811Z,99.90
2018-07-21T18:27:31.277Z,99.90
2018-07-21T18:30:01.670Z,99.90
2018-07-21T18:32:32.090Z,99.90
2018-07-21T18:35:05.490Z,99.90
2018-07-21T18:37:41.019Z,99.90
2018-07-21T18:40:11.449Z,99.90
2018-07-21T18:42:41.790Z,99.90
2018-07-21T18:45:12.439Z,99.90
2018-07-21T18:47:42.764Z,99.90
2018-07-21T18:50:12.472Z,99.90
2018-07-21T18:52:42.814Z,99.90
2018-07-21T18:55:13.201Z,99.90
2018-07-21T18:57:43.579Z,99.90
2018-07-21T19:00:14.768Z,99.90
2018-07-21T19:02:45.164Z,99.90
2018-07-21T19:05:16.295Z,99.90
2018-07-21T19:07:46.732Z,99.90
2018-07-21T19:10:19.164Z,99.90
2018-07-21T19:12:56.658Z,99.90
2018-07-21T19:15:28.053Z,99.90
2018-07-21T19:17:59.199Z,99.90
2018-07-21T19:20:30.385Z,99.90
2018-07-21T19:23:06.917Z,99.90
2018-07-21T19:25:38.095Z,99.90
2018-07-21T19:28:08.471Z,99.90
2018-07-21T19:30:39.051Z,99.90
2018-07-21T19:33:11.417Z,99.90
2018-07-21T19:35:41.814Z,99.90
2018-07-21T19:38:12.986Z,99.90
2018-07-21T19:40:43.406Z,99.90
2018-07-21T19:43:13.977Z,99.90
2018-07-21T19:45:44.436Z,99.90
2018-07-21T19:48:15.508Z,99.90
2018-07-21T19:50:45.893Z,99.90
2018-07-21T19:53:18.676Z,99.90
2018-07-21T19:55:49.043Z,99.90
2018-07-21T19:58:19.510Z,99.90
2018-07-21T20:00:49.860Z,99.90
2018-07-21T20:03:21.233Z,99.90
2018-07-21T20:05:52.362Z,99.90
2018-07-21T20:08:23.695Z,99.90
2018-07-21T20:10:54.090Z,99.90
2018-07-21T20:13:26.745Z,99.90
2018-07-21T20:16:05.032Z,99.90
2018-07-21T20:18:36.121Z,99.90
2018-07-21T20:21:06.600Z,99.90
2018-07-21T20:23:39.414Z,99.90
2018-07-21T20:26:09.781Z,99.90
2018-07-21T20:28:40.161Z,99.90
2018-07-21T20:31:10.573Z,99.90
2018-07-21T20:33:41.732Z,99.90
2018-07-21T20:36:12.060Z,99.90
2018-07-21T20:38:42.651Z,99.90
2018-07-21T20:41:13.700Z,99.90
2018-07-21T20:43:44.127Z,99.90
2018-07-21T20:46:29.481Z,99.90
2018-07-21T20:48:59.774Z,99.90
2018-07-21T20:51:31.110Z,99.90
2018-07-21T20:54:02.483Z,99.90
2018-07-21T20:56:32.861Z,99.90
2018-07-21T20:59:03.239Z,99.90
2018-07-21T21:01:33.652Z,99.90
2018-07-21T21:04:04.039Z,99.90
2018-07-21T21:06:36.459Z,99.90
2018-07-21T21:09:06.866Z,99.90
2018-07-21T21:11:37.268Z,99.90
2018-07-21T21:14:08.419Z,99.90
2018-07-21T21:16:38.833Z,99.90
2018-07-21T21:19:09.209Z,99.90
2018-07-21T21:21:39.615Z,99.90
2018-07-21T21:24:10.032Z,99.90
2018-07-21T21:26:40.417Z,99.90
2018-07-21T21:29:10.810Z,99.90
2018-07-21T21:31:41.209Z,99.90
2018-07-21T21:34:12.375Z,99.90
2018-07-21T21:36:42.751Z,99.90
2018-07-21T21:39:13.174Z,99.90
2018-07-21T21:41:43.516Z,99.90
2018-07-21T21:44:13.901Z,99.90
2018-07-21T21:46:50.457Z,99.90
2018-07-21T21:49:20.780Z,99.90
2018-07-21T21:51:51.193Z,99.90
2018-07-21T21:54:21.608Z,99.90
2018-07-21T21:56:52.048Z,99.90
2018-07-21T21:59:40.665Z,99.90
2018-07-21T22:02:10.988Z,99.90
2018-07-21T22:04:41.383Z,99.90
2018-07-21T22:07:11.766Z,99.90
2018-07-21T22:09:42.913Z,99.90
2018-07-21T22:15:01.410Z,99.90
2018-07-21T22:17:31.806Z,99.90
2018-07-21T22:20:02.953Z,99.90
2018-07-21T22:22:34.121Z,99.90
2018-07-21T22:25:04.533Z,99.90
2018-07-21T22:27:35.664Z,99.90
2018-07-21T22:30:06.084Z,99.90
2018-07-21T22:32:38.517Z,99.90
2018-07-21T22:35:16.231Z,99.90
2018-07-21T22:37:46.662Z,99.90
2018-07-21T22:40:17.770Z,99.90
2018-07-21T22:42:48.212Z,99.90
2018-07-21T22:45:18.604Z,99.90
2018-07-21T22:47:49.012Z,99.90
2018-07-21T22:50:20.869Z,99.90
2018-07-21T22:52:51.263Z,99.90
2018-07-21T22:55:49.362Z,99.90
2018-07-21T22:58:19.753Z,99.90
2018-07-21T23:00:50.135Z,99.90
2018-07-21T23:03:20.559Z,99.90
2018-07-21T23:05:51.701Z,99.90
2018-07-21T23:08:22.106Z,99.90
2018-07-21T23:10:52.534Z,99.90
2018-07-21T23:13:22.934Z,99.90
2018-07-21T23:16:11.629Z,99.90
2018-07-21T23:18:42.026Z,99.90
2018-07-21T23:21:31.740Z,99.90
2018-07-21T23:24:02.119Z,99.90
2018-07-21T23:26:32.496Z,99.90
2018-07-21T23:29:03.677Z,99.90
2018-07-21T23:31:34.781Z,99.90
2018-07-21T23:34:05.171Z,99.90
2018-07-21T23:36:35.601Z,99.90
2018-07-21T23:39:25.391Z,99.90
2018-07-21T23:42:02.874Z,99.90
2018-07-21T23:44:35.201Z,99.90
2018-07-21T23:47:05.628Z,99.90
2018-07-21T23:49:36.033Z,99.90
2018-07-21T23:52:06.358Z,99.90
2018-07-21T23:54:36.740Z,99.90
2018-07-21T23:57:12.267Z,99.90
2018-07-21T23:59:42.651Z,99.90
